createdAt,value
2016-12-11T00:00:21.638Z,0
2016-12-11T00:01:21.673Z,0
2016-12-11T00:02:21.714Z,0
2016-12-11T00:03:21.784Z,0
2016-12-11T00:04:21.854Z,0
2016-12-11T00:05:21.896Z,0
2016-12-11T00:06:22.002Z,0
2016-12-11T00:07:22.020Z,0
2016-12-11T00:08:22.066Z,0
2016-12-11T00:09:22.125Z,0
2016-12-11T00:10:22.182Z,0
2016-12-11T00:11:22.826Z,0
2016-12-11T00:12:22.285Z,0
2016-12-11T00:13:22.367Z,0
2016-12-11T00:14:22.699Z,0
2016-12-11T00:15:22.455Z,0
2016-12-11T00:16:22.516Z,0
2016-12-11T00:17:23.206Z,0
2016-12-11T00:18:22.628Z,0
2016-12-11T00:19:22.665Z,0
2016-12-11T00:20:22.762Z,0
2016-12-11T00:21:23.282Z,0
2016-12-11T00:22:22.844Z,0
2016-12-11T00:23:22.912Z,0
2016-12-11T00:24:22.992Z,0
2016-12-11T00:25:23.013Z,0
2016-12-11T00:26:23.074Z,0
2016-12-11T00:27:23.122Z,0
2016-12-11T00:28:23.165Z,0
2016-12-11T00:29:23.232Z,0
2016-12-11T00:30:23.605Z,0
2016-12-11T00:31:23.351Z,0
2016-12-11T00:32:23.388Z,0
2016-12-11T00:33:23.456Z,0
2016-12-11T00:34:23.823Z,0
2016-12-11T00:35:23.561Z,0
2016-12-11T00:36:23.629Z,0
2016-12-11T00:37:23.673Z,0
2016-12-11T00:38:23.719Z,0
2016-12-11T00:39:23.809Z,0
2016-12-11T00:40:23.863Z,0
2016-12-11T00:41:23.924Z,0
2016-12-11T00:42:23.965Z,0
2016-12-11T00:43:24.002Z,0
2016-12-11T00:44:24.058Z,0
2016-12-11T00:45:24.130Z,0
2016-12-11T00:46:24.181Z,0
2016-12-11T00:47:24.559Z,0
2016-12-11T00:48:24.294Z,0
2016-12-11T00:49:24.348Z,0
2016-12-11T00:50:24.393Z,0
2016-12-11T00:51:24.449Z,0
2016-12-11T00:52:24.500Z,0
2016-12-11T00:53:24.568Z,0
2016-12-11T00:54:24.676Z,0
2016-12-11T00:55:24.680Z,0
2016-12-11T00:56:24.742Z,0
2016-12-11T00:57:24.778Z,0
2016-12-11T00:58:24.848Z,0
2016-12-11T00:59:24.904Z,0
2016-12-11T01:00:24.966Z,0
2016-12-11T01:01:25.026Z,0
2016-12-11T01:02:25.097Z,0
2016-12-11T01:03:25.144Z,0
2016-12-11T01:04:25.183Z,0
2016-12-11T01:05:25.260Z,0
2016-12-11T01:06:25.300Z,0
2016-12-11T01:07:25.357Z,0
2016-12-11T01:08:25.413Z,0
2016-12-11T01:09:25.448Z,0
2016-12-11T01:10:25.522Z,0
2016-12-11T01:11:25.575Z,0
2016-12-11T01:12:25.612Z,0
2016-12-11T01:13:25.714Z,0
2016-12-11T01:14:25.743Z,0
2016-12-11T01:15:25.841Z,0
2016-12-11T01:16:25.851Z,0
2016-12-11T01:17:25.913Z,0
2016-12-11T01:18:25.977Z,0
2016-12-11T01:19:26.003Z,0
2016-12-11T01:20:26.094Z,0
2016-12-11T01:21:26.134Z,0
2016-12-11T01:22:26.184Z,0
2016-12-11T01:23:26.233Z,0
2016-12-11T01:24:26.301Z,0
2016-12-11T01:25:26.346Z,0
2016-12-11T01:26:26.414Z,0
2016-12-11T01:27:26.446Z,0
2016-12-11T01:28:26.509Z,0
2016-12-11T01:29:26.595Z,0
2016-12-11T01:30:26.636Z,0
2016-12-11T01:31:26.684Z,0
2016-12-11T01:32:26.742Z,0
2016-12-11T01:33:26.802Z,0
2016-12-11T01:34:26.842Z,0
2016-12-11T01:35:26.921Z,0
2016-12-11T01:36:26.955Z,0
2016-12-11T01:37:27.032Z,0
2016-12-11T01:38:27.083Z,0
2016-12-11T01:39:27.137Z,0
2016-12-11T01:40:27.195Z,0
2016-12-11T01:41:27.236Z,0
2016-12-11T01:42:27.299Z,0
2016-12-11T01:43:27.360Z,0
2016-12-11T01:44:27.413Z,0
2016-12-11T01:45:27.472Z,0
2016-12-11T01:46:27.540Z,0
2016-12-11T01:47:27.591Z,0
2016-12-11T01:48:27.653Z,0
2016-12-11T01:49:27.689Z,0
2016-12-11T01:50:27.726Z,0
2016-12-11T01:51:27.804Z,0
2016-12-11T01:52:27.847Z,0
2016-12-11T01:53:27.911Z,0
2016-12-11T01:54:27.986Z,0
2016-12-11T01:55:28.025Z,0
2016-12-11T01:56:28.083Z,0
2016-12-11T01:57:28.117Z,0
2016-12-11T01:58:28.204Z,0
2016-12-11T01:59:28.264Z,0
2016-12-11T02:00:28.315Z,0
2016-12-11T02:01:28.375Z,0
2016-12-11T02:02:28.414Z,0
2016-12-11T02:03:28.474Z,0
2016-12-11T02:04:28.536Z,0
2016-12-11T02:05:28.598Z,0
2016-12-11T02:06:28.645Z,0
2016-12-11T02:07:28.697Z,0
2016-12-11T02:08:28.795Z,0
2016-12-11T02:09:28.800Z,0
2016-12-11T02:10:28.849Z,0
2016-12-11T02:11:28.925Z,0
2016-12-11T02:12:28.967Z,0
2016-12-11T02:13:29.030Z,0
2016-12-11T02:14:29.089Z,0
2016-12-11T02:15:29.148Z,0
2016-12-11T02:16:29.176Z,0
2016-12-11T02:17:29.255Z,0
2016-12-11T02:18:29.308Z,0
2016-12-11T02:19:29.357Z,0
2016-12-11T02:20:29.428Z,0
2016-12-11T02:21:29.476Z,0
2016-12-11T02:22:29.540Z,0
2016-12-11T02:23:29.787Z,0
2016-12-11T02:24:29.647Z,0
2016-12-11T02:25:29.691Z,0
2016-12-11T02:26:29.771Z,0
2016-12-11T02:27:29.831Z,0
2016-12-11T02:28:29.853Z,0
2016-12-11T02:29:29.934Z,0
2016-12-11T02:30:29.963Z,0
2016-12-11T02:31:30.032Z,0
2016-12-11T02:32:30.096Z,0
2016-12-11T02:33:30.354Z,0
2016-12-11T02:34:30.181Z,0
2016-12-11T02:35:30.274Z,0
2016-12-11T02:36:30.302Z,0
2016-12-11T02:37:30.364Z,0
2016-12-11T02:38:30.420Z,0
2016-12-11T02:39:30.477Z,0
2016-12-11T02:40:30.536Z,0
2016-12-11T02:41:30.591Z,0
2016-12-11T02:42:30.643Z,0
2016-12-11T02:43:30.713Z,0
2016-12-11T02:44:30.737Z,0
2016-12-11T02:45:30.802Z,0
2016-12-11T02:46:30.866Z,0
2016-12-11T02:47:30.927Z,0
2016-12-11T02:48:30.973Z,0
2016-12-11T02:49:31.018Z,0
2016-12-11T02:50:31.068Z,0
2016-12-11T02:51:31.165Z,0
2016-12-11T02:52:31.211Z,0
2016-12-11T02:53:31.272Z,0
2016-12-11T02:54:31.293Z,0
2016-12-11T02:55:31.357Z,0
2016-12-11T02:56:31.417Z,0
2016-12-11T02:57:31.462Z,0
2016-12-11T02:58:31.542Z,0
2016-12-11T02:59:31.597Z,0
2016-12-11T03:00:31.643Z,0
2016-12-11T03:01:31.713Z,0
2016-12-11T03:02:31.753Z,0
2016-12-11T03:03:31.992Z,0
2016-12-11T03:04:32.070Z,0
2016-12-11T03:05:31.918Z,0
2016-12-11T03:06:31.976Z,0
2016-12-11T03:07:32.047Z,0
2016-12-11T03:08:32.081Z,0
2016-12-11T03:09:32.151Z,0
2016-12-11T03:10:32.192Z,0
2016-12-11T03:11:32.237Z,0
2016-12-11T03:12:32.291Z,0
2016-12-11T03:13:32.352Z,0
2016-12-11T03:14:32.422Z,0
2016-12-11T03:15:32.454Z,0
2016-12-11T03:16:32.536Z,0
2016-12-11T03:17:32.578Z,0
2016-12-11T03:18:32.638Z,0
2016-12-11T03:19:32.681Z,0
2016-12-11T03:20:32.746Z,0
2016-12-11T03:21:32.810Z,0
2016-12-11T03:22:32.847Z,0
2016-12-11T03:23:32.899Z,0
2016-12-11T03:24:32.981Z,0
2016-12-11T03:25:33.030Z,0
2016-12-11T03:26:33.080Z,0
2016-12-11T03:27:33.158Z,0
2016-12-11T03:28:33.192Z,0
2016-12-11T03:29:33.257Z,0
2016-12-11T03:30:33.304Z,0
2016-12-11T03:31:33.384Z,0
2016-12-11T03:32:33.401Z,0
2016-12-11T03:33:33.673Z,0
2016-12-11T03:34:33.525Z,0
2016-12-11T03:35:33.595Z,0
2016-12-11T03:36:33.645Z,0
2016-12-11T03:37:33.701Z,0
2016-12-11T03:38:33.749Z,0
2016-12-11T03:39:33.795Z,0
2016-12-11T03:40:33.853Z,0
2016-12-11T03:41:33.901Z,0
2016-12-11T03:42:33.967Z,0
2016-12-11T03:43:34.029Z,0
2016-12-11T03:44:34.083Z,0
2016-12-11T03:45:34.140Z,0
2016-12-11T03:46:34.215Z,0
2016-12-11T03:47:34.250Z,0
2016-12-11T03:48:34.303Z,0
2016-12-11T03:49:34.380Z,0
2016-12-11T03:50:34.417Z,0
2016-12-11T03:51:34.461Z,0
2016-12-11T03:52:34.550Z,0
2016-12-11T03:53:34.595Z,0
2016-12-11T03:54:34.631Z,0
2016-12-11T03:55:34.697Z,0
2016-12-11T03:56:34.771Z,0
2016-12-11T03:57:34.811Z,0
2016-12-11T03:58:34.869Z,0
2016-12-11T03:59:34.920Z,0
2016-12-11T04:00:35.088Z,0
2016-12-11T04:01:35.033Z,0
2016-12-11T04:02:35.094Z,0
2016-12-11T04:03:35.352Z,0
2016-12-11T04:04:35.709Z,0
2016-12-11T04:05:50.182Z,0
2016-12-11T04:06:35.319Z,0
2016-12-11T04:07:35.370Z,0
2016-12-11T04:08:35.436Z,0
2016-12-11T04:09:35.479Z,0
2016-12-11T04:10:35.523Z,0
2016-12-11T04:11:35.584Z,0
2016-12-11T04:12:35.633Z,0
2016-12-11T04:13:35.684Z,0
2016-12-11T04:14:35.741Z,0
2016-12-11T04:15:35.815Z,0
2016-12-11T04:16:35.880Z,0
2016-12-11T04:17:35.913Z,0
2016-12-11T04:18:35.980Z,0
2016-12-11T04:19:36.029Z,0
2016-12-11T04:20:36.091Z,0
2016-12-11T04:21:36.141Z,0
2016-12-11T04:22:36.202Z,0
2016-12-11T04:23:36.259Z,0
2016-12-11T04:24:36.320Z,0
2016-12-11T04:25:36.361Z,0
2016-12-11T04:26:36.419Z,0
2016-12-11T04:27:36.479Z,0
2016-12-11T04:28:36.531Z,0
2016-12-11T04:29:36.585Z,0
2016-12-11T04:30:36.660Z,0
2016-12-11T04:31:36.706Z,0
2016-12-11T04:32:36.745Z,0
2016-12-11T04:33:36.990Z,0
2016-12-11T04:34:36.867Z,0
2016-12-11T04:35:37.110Z,0
2016-12-11T04:36:36.966Z,0
2016-12-11T04:37:37.032Z,0
2016-12-11T04:38:37.088Z,0
2016-12-11T04:39:37.155Z,0
2016-12-11T04:40:37.185Z,0
2016-12-11T04:41:37.264Z,0
2016-12-11T04:42:37.312Z,0
2016-12-11T04:43:37.385Z,0
2016-12-11T04:44:37.428Z,0
2016-12-11T04:45:37.498Z,0
2016-12-11T04:46:37.541Z,0
2016-12-11T04:47:37.588Z,0
2016-12-11T04:48:37.655Z,0
2016-12-11T04:49:37.684Z,0
2016-12-11T04:50:37.759Z,0
2016-12-11T04:51:37.818Z,0
2016-12-11T04:52:37.869Z,0
2016-12-11T04:53:37.942Z,0
2016-12-11T04:54:37.980Z,0
2016-12-11T04:55:38.033Z,0
2016-12-11T04:56:38.085Z,0
2016-12-11T04:57:38.167Z,0
2016-12-11T04:58:38.192Z,0
2016-12-11T04:59:38.270Z,0
2016-12-11T05:00:38.314Z,0
2016-12-11T05:01:38.364Z,0
2016-12-11T05:02:38.613Z,0
2016-12-11T05:03:38.459Z,0
2016-12-11T05:04:38.530Z,0
2016-12-11T05:05:38.596Z,0
2016-12-11T05:06:38.633Z,0
2016-12-11T05:07:38.691Z,0
2016-12-11T05:08:38.767Z,0
2016-12-11T05:09:38.816Z,0
2016-12-11T05:10:38.848Z,0
2016-12-11T05:11:38.906Z,0
2016-12-11T05:12:38.960Z,0
2016-12-11T05:13:39.017Z,0
2016-12-11T05:14:39.091Z,0
2016-12-11T05:15:39.127Z,0
2016-12-11T05:16:39.218Z,0
2016-12-11T05:17:39.250Z,0
2016-12-11T05:18:39.293Z,0
2016-12-11T05:19:39.348Z,0
2016-12-11T05:20:39.417Z,0
2016-12-11T05:21:39.486Z,0
2016-12-11T05:22:39.516Z,0
2016-12-11T05:23:39.590Z,0
2016-12-11T05:24:39.645Z,0
2016-12-11T05:25:39.680Z,0
2016-12-11T05:26:39.772Z,0
2016-12-11T05:27:39.813Z,0
2016-12-11T05:28:39.874Z,0
2016-12-11T05:29:39.921Z,0
2016-12-11T05:30:39.985Z,0
2016-12-11T05:31:40.031Z,0
2016-12-11T05:32:40.067Z,0
2016-12-11T05:33:40.144Z,0
2016-12-11T05:34:40.210Z,0
2016-12-11T05:35:40.254Z,0
2016-12-11T05:36:40.314Z,0
2016-12-11T05:37:40.371Z,0
2016-12-11T05:38:40.409Z,0
2016-12-11T05:39:40.468Z,0
2016-12-11T05:40:40.527Z,0
2016-12-11T05:41:40.591Z,0
2016-12-11T05:42:40.647Z,0
2016-12-11T05:43:40.702Z,0
2016-12-11T05:44:40.749Z,0
2016-12-11T05:45:40.784Z,0
2016-12-11T05:46:40.854Z,0
2016-12-11T05:47:40.901Z,0
2016-12-11T05:48:40.954Z,0
2016-12-11T05:49:41.023Z,0
2016-12-11T05:50:41.079Z,0
2016-12-11T05:51:41.129Z,0
2016-12-11T05:52:41.194Z,0
2016-12-11T05:53:41.251Z,0
2016-12-11T05:54:41.296Z,0
2016-12-11T05:55:41.350Z,0
2016-12-11T05:56:41.414Z,0
2016-12-11T05:57:41.454Z,0
2016-12-11T05:58:41.517Z,0
2016-12-11T05:59:41.558Z,0
2016-12-11T06:00:41.622Z,0
2016-12-11T06:01:41.671Z,0
2016-12-11T06:02:41.732Z,0
2016-12-11T06:03:41.781Z,0
2016-12-11T06:04:41.854Z,0
2016-12-11T06:05:41.906Z,0
2016-12-11T06:06:41.961Z,0
2016-12-11T06:07:42.042Z,0
2016-12-11T06:08:42.089Z,0
2016-12-11T06:09:42.126Z,0
2016-12-11T06:10:42.167Z,0
2016-12-11T06:11:42.243Z,0
2016-12-11T06:12:42.283Z,0
2016-12-11T06:13:42.353Z,0
2016-12-11T06:14:42.432Z,0
2016-12-11T06:15:42.458Z,0
2016-12-11T06:16:42.525Z,0
2016-12-11T06:17:42.587Z,0
2016-12-11T06:18:42.625Z,0
2016-12-11T06:19:42.671Z,0
2016-12-11T06:20:42.749Z,0
2016-12-11T06:21:42.804Z,0
2016-12-11T06:22:42.841Z,0
2016-12-11T06:23:42.917Z,0
2016-12-11T06:24:42.971Z,0
2016-12-11T06:25:43.020Z,0
2016-12-11T06:26:43.076Z,0
2016-12-11T06:27:43.119Z,0
2016-12-11T06:28:43.188Z,4
2016-12-11T06:29:43.243Z,4
2016-12-11T06:30:43.275Z,0
2016-12-11T06:31:43.368Z,0
2016-12-11T06:32:43.393Z,4
2016-12-11T06:33:43.462Z,4
2016-12-11T06:34:43.537Z,4
2016-12-11T06:35:43.553Z,4
2016-12-11T06:36:43.614Z,4
2016-12-11T06:37:43.694Z,4
2016-12-11T06:38:43.741Z,8
2016-12-11T06:39:43.796Z,8
2016-12-11T06:40:43.852Z,12
2016-12-11T06:41:43.901Z,12
2016-12-11T06:42:43.954Z,8
2016-12-11T06:43:44.047Z,12
2016-12-11T06:44:44.087Z,12
2016-12-11T06:45:44.122Z,16
2016-12-11T06:46:44.182Z,16
2016-12-11T06:47:44.242Z,20
2016-12-11T06:48:44.289Z,20
2016-12-11T06:49:44.355Z,24
2016-12-11T06:50:44.408Z,24
2016-12-11T06:51:44.440Z,24
2016-12-11T06:52:44.511Z,28
2016-12-11T06:53:44.552Z,32
2016-12-11T06:54:44.635Z,32
2016-12-11T06:55:44.711Z,36
2016-12-11T06:56:44.740Z,48
2016-12-11T06:57:44.795Z,64
2016-12-11T06:58:44.857Z,80
2016-12-11T06:59:44.886Z,92
2016-12-11T07:00:44.960Z,100
2016-12-11T07:01:45.019Z,104
2016-12-11T07:02:45.080Z,104
2016-12-11T07:03:45.176Z,108
2016-12-11T07:04:45.167Z,116
2016-12-11T07:05:45.247Z,124
2016-12-11T07:06:45.302Z,128
2016-12-11T07:07:45.350Z,144
2016-12-11T07:08:45.407Z,156
2016-12-11T07:09:45.441Z,168
2016-12-11T07:10:45.542Z,172
2016-12-11T07:11:45.586Z,164
2016-12-11T07:12:45.629Z,212
2016-12-11T07:13:45.674Z,252
2016-12-11T07:14:45.742Z,280
2016-12-11T07:15:45.799Z,296
2016-12-11T07:16:45.847Z,288
2016-12-11T07:17:45.907Z,260
2016-12-11T07:18:45.974Z,220
2016-12-11T07:19:45.994Z,188
2016-12-11T07:20:46.073Z,184
2016-12-11T07:21:46.106Z,196
2016-12-11T07:22:46.191Z,200
2016-12-11T07:23:46.252Z,188
2016-12-11T07:24:46.295Z,204
2016-12-11T07:25:46.343Z,228
2016-12-11T07:26:46.398Z,240
2016-12-11T07:27:46.473Z,264
2016-12-11T07:28:46.523Z,276
2016-12-11T07:29:46.571Z,272
2016-12-11T07:30:46.640Z,280
2016-12-11T07:31:46.687Z,292
2016-12-11T07:32:46.754Z,300
2016-12-11T07:33:46.793Z,304
2016-12-11T07:34:46.856Z,296
2016-12-11T07:35:46.917Z,292
2016-12-11T07:36:46.958Z,280
2016-12-11T07:37:47.003Z,272
2016-12-11T07:38:47.079Z,280
2016-12-11T07:39:47.140Z,304
2016-12-11T07:40:47.176Z,344
2016-12-11T07:41:47.234Z,356
2016-12-11T07:42:47.310Z,356
2016-12-11T07:43:47.362Z,384
2016-12-11T07:44:47.407Z,396
2016-12-11T07:45:47.472Z,440
2016-12-11T07:46:47.531Z,444
2016-12-11T07:47:47.556Z,460
2016-12-11T07:48:47.618Z,512
2016-12-11T07:49:47.664Z,448
2016-12-11T07:50:47.743Z,464
2016-12-11T07:51:47.802Z,488
2016-12-11T07:52:47.854Z,508
2016-12-11T07:53:47.911Z,592
2016-12-11T07:54:47.934Z,608
2016-12-11T07:55:48.013Z,616
2016-12-11T07:56:48.069Z,672
2016-12-11T07:57:48.119Z,720
2016-12-11T07:58:48.158Z,728
2016-12-11T07:59:48.214Z,668
2016-12-11T08:00:48.289Z,780
2016-12-11T08:01:48.332Z,644
2016-12-11T08:02:48.723Z,652
2016-12-11T08:03:48.464Z,656
2016-12-11T08:04:48.521Z,584
2016-12-11T08:05:48.572Z,580
2016-12-11T08:06:48.623Z,616
2016-12-11T08:07:48.666Z,604
2016-12-11T08:08:48.736Z,704
2016-12-11T08:09:48.804Z,616
2016-12-11T08:10:48.843Z,692
2016-12-11T08:11:48.915Z,656
2016-12-11T08:12:48.959Z,584
2016-12-11T08:13:49.028Z,788
2016-12-11T08:14:49.065Z,512
2016-12-11T08:15:49.176Z,616
2016-12-11T08:16:49.200Z,472
2016-12-11T08:17:49.223Z,568
2016-12-11T08:18:49.277Z,720
2016-12-11T08:19:49.352Z,760
2016-12-11T08:20:49.396Z,628
2016-12-11T08:21:49.447Z,612
2016-12-11T08:22:49.516Z,612
2016-12-11T08:23:49.575Z,552
2016-12-11T08:24:49.605Z,692
2016-12-11T08:25:49.726Z,648
2016-12-11T08:26:49.719Z,796
2016-12-11T08:27:49.791Z,768
2016-12-11T08:28:49.855Z,748
2016-12-11T08:29:49.898Z,804
2016-12-11T08:30:49.955Z,816
2016-12-11T08:31:50.026Z,788
2016-12-11T08:32:50.073Z,488
2016-12-11T08:33:50.137Z,768
2016-12-11T08:34:50.178Z,768
2016-12-11T08:35:50.240Z,900
2016-12-11T08:36:50.294Z,864
2016-12-11T08:37:50.332Z,1116
2016-12-11T08:38:50.440Z,960
2016-12-11T08:39:50.458Z,1196
2016-12-11T08:40:50.528Z,1096
2016-12-11T08:41:50.555Z,1028
2016-12-11T08:42:50.626Z,836
2016-12-11T08:43:50.701Z,780
2016-12-11T08:44:50.737Z,684
2016-12-11T08:45:50.777Z,500
2016-12-11T08:46:50.856Z,476
2016-12-11T08:47:50.896Z,744
2016-12-11T08:48:50.967Z,844
2016-12-11T08:49:51.037Z,860
2016-12-11T08:50:51.071Z,936
2016-12-11T08:51:51.156Z,916
2016-12-11T08:52:51.182Z,916
2016-12-11T08:53:51.238Z,960
2016-12-11T08:54:51.299Z,984
2016-12-11T08:55:51.355Z,1000
2016-12-11T08:56:51.410Z,1008
2016-12-11T08:57:51.447Z,1052
2016-12-11T08:58:51.523Z,1156
2016-12-11T08:59:51.573Z,1308
2016-12-11T09:00:51.646Z,1460
2016-12-11T09:01:51.691Z,1556
2016-12-11T09:02:51.730Z,1604
2016-12-11T09:03:51.786Z,1620
2016-12-11T09:04:51.849Z,1568
2016-12-11T09:05:51.903Z,1636
2016-12-11T09:06:51.963Z,1540
2016-12-11T09:07:52.038Z,1424
2016-12-11T09:08:52.072Z,1352
2016-12-11T09:09:52.127Z,1260
2016-12-11T09:10:52.190Z,1244
2016-12-11T09:11:52.231Z,1312
2016-12-11T09:12:52.291Z,1280
2016-12-11T09:13:52.342Z,1416
2016-12-11T09:14:52.418Z,1560
2016-12-11T09:15:52.484Z,1580
2016-12-11T09:16:52.530Z,1488
2016-12-11T09:17:52.565Z,1488
2016-12-11T09:18:52.622Z,1316
2016-12-11T09:19:52.692Z,1168
2016-12-11T09:20:52.742Z,1088
2016-12-11T09:21:52.807Z,992
2016-12-11T09:22:52.845Z,1004
2016-12-11T09:23:52.913Z,1024
2016-12-11T09:24:52.953Z,996
2016-12-11T09:25:53.022Z,964
2016-12-11T09:26:53.082Z,976
2016-12-11T09:27:53.119Z,988
2016-12-11T09:28:53.185Z,920
2016-12-11T09:29:53.233Z,952
2016-12-11T09:30:53.283Z,1016
2016-12-11T09:31:53.364Z,1084
2016-12-11T09:32:53.434Z,1256
2016-12-11T09:33:53.477Z,1152
2016-12-11T09:34:53.536Z,1072
2016-12-11T09:35:53.588Z,1036
2016-12-11T09:36:53.656Z,1052
2016-12-11T09:37:53.694Z,1064
2016-12-11T09:38:53.753Z,1108
2016-12-11T09:39:53.800Z,1020
2016-12-11T09:40:53.881Z,964
2016-12-11T09:41:53.913Z,1064
2016-12-11T09:42:53.960Z,1140
2016-12-11T09:43:54.041Z,1192
2016-12-11T09:44:54.139Z,1260
2016-12-11T09:45:54.144Z,1172
2016-12-11T09:46:54.199Z,1044
2016-12-11T09:47:54.261Z,908
2016-12-11T09:48:54.299Z,800
2016-12-11T09:49:54.373Z,780
2016-12-11T09:50:54.415Z,836
2016-12-11T09:51:54.479Z,948
2016-12-11T09:52:54.513Z,956
2016-12-11T09:53:54.580Z,960
2016-12-11T09:54:54.656Z,1076
2016-12-11T09:55:54.679Z,1216
2016-12-11T09:56:54.752Z,1216
2016-12-11T09:57:54.826Z,1260
2016-12-11T09:58:54.876Z,1272
2016-12-11T09:59:54.923Z,1240
2016-12-11T10:00:54.971Z,1204
2016-12-11T10:01:55.021Z,1248
2016-12-11T10:02:55.092Z,1360
2016-12-11T10:03:55.136Z,1456
2016-12-11T10:04:55.190Z,1504
2016-12-11T10:05:55.260Z,1552
2016-12-11T10:06:55.333Z,1648
2016-12-11T10:07:55.352Z,1696
2016-12-11T10:08:55.405Z,1704
2016-12-11T10:09:55.476Z,1692
2016-12-11T10:10:55.552Z,1720
2016-12-11T10:11:55.618Z,1884
2016-12-11T10:12:55.637Z,2064
2016-12-11T10:13:55.705Z,2212
2016-12-11T10:14:55.749Z,2064
2016-12-11T10:15:55.826Z,1948
2016-12-11T10:16:55.876Z,1888
2016-12-11T10:17:55.928Z,1856
2016-12-11T10:18:55.991Z,1760
2016-12-11T10:19:56.025Z,1716
2016-12-11T10:20:56.073Z,1708
2016-12-11T10:21:56.138Z,1852
2016-12-11T10:22:56.205Z,1680
2016-12-11T10:23:56.262Z,1636
2016-12-11T10:24:56.326Z,1620
2016-12-11T10:25:56.352Z,1596
2016-12-11T10:26:56.435Z,1596
2016-12-11T10:27:56.489Z,1508
2016-12-11T10:28:56.552Z,1612
2016-12-11T10:29:56.583Z,1660
2016-12-11T10:30:56.665Z,1756
2016-12-11T10:31:56.725Z,1668
2016-12-11T10:32:56.765Z,1612
2016-12-11T10:33:56.819Z,1484
2016-12-11T10:34:56.877Z,1484
2016-12-11T10:35:56.922Z,1480
2016-12-11T10:36:56.972Z,1484
2016-12-11T10:37:57.049Z,1424
2016-12-11T10:38:57.109Z,1324
2016-12-11T10:39:57.142Z,1412
2016-12-11T10:40:57.212Z,1424
2016-12-11T10:41:57.278Z,1276
2016-12-11T10:42:57.307Z,748
2016-12-11T10:43:57.388Z,652
2016-12-11T10:44:57.419Z,568
2016-12-11T10:45:57.487Z,604
2016-12-11T10:46:57.535Z,612
2016-12-11T10:47:57.591Z,696
2016-12-11T10:48:57.655Z,708
2016-12-11T10:49:57.717Z,628
2016-12-11T10:50:57.776Z,548
2016-12-11T10:51:57.801Z,528
2016-12-11T10:52:57.881Z,460
2016-12-11T10:53:57.913Z,436
2016-12-11T10:54:57.982Z,468
2016-12-11T10:55:58.027Z,500
2016-12-11T10:56:58.090Z,492
2016-12-11T10:57:58.147Z,472
2016-12-11T10:58:58.199Z,456
2016-12-11T10:59:58.274Z,452
2016-12-11T11:00:58.323Z,460
2016-12-11T11:01:58.385Z,436
2016-12-11T11:02:58.437Z,448
2016-12-11T11:03:58.490Z,488
2016-12-11T11:04:58.553Z,584
2016-12-11T11:05:58.589Z,624
2016-12-11T11:06:58.646Z,648
2016-12-11T11:07:58.719Z,644
2016-12-11T11:08:58.777Z,660
2016-12-11T11:09:58.830Z,784
2016-12-11T11:10:58.860Z,660
2016-12-11T11:11:58.937Z,608
2016-12-11T11:12:58.977Z,724
2016-12-11T11:13:59.035Z,972
2016-12-11T11:14:59.114Z,1372
2016-12-11T11:15:59.159Z,1356
2016-12-11T11:16:59.229Z,1416
2016-12-11T11:17:59.295Z,1192
2016-12-11T11:18:59.321Z,1140
2016-12-11T11:19:59.400Z,1128
2016-12-11T11:20:59.424Z,1152
2016-12-11T11:21:59.498Z,960
2016-12-11T11:22:59.558Z,968
2016-12-11T11:23:59.600Z,1300
2016-12-11T11:24:59.660Z,1452
2016-12-11T11:25:59.717Z,1772
2016-12-11T11:26:59.757Z,1052
2016-12-11T11:27:59.821Z,920
2016-12-11T11:28:59.883Z,872
2016-12-11T11:29:59.931Z,1088
2016-12-11T11:31:00.010Z,1488
2016-12-11T11:32:00.042Z,1600
2016-12-11T11:33:00.105Z,1516
2016-12-11T11:34:00.154Z,1080
2016-12-11T11:35:00.205Z,908
2016-12-11T11:36:00.272Z,744
2016-12-11T11:37:00.319Z,588
2016-12-11T11:38:00.369Z,500
2016-12-11T11:39:00.447Z,480
2016-12-11T11:40:00.493Z,520
2016-12-11T11:41:00.571Z,592
2016-12-11T11:42:00.596Z,588
2016-12-11T11:43:00.680Z,612
2016-12-11T11:44:00.717Z,540
2016-12-11T11:45:00.773Z,444
2016-12-11T11:46:00.826Z,372
2016-12-11T11:47:00.880Z,312
2016-12-11T11:48:00.931Z,248
2016-12-11T11:49:01.010Z,232
2016-12-11T11:50:01.055Z,476
2016-12-11T11:51:01.100Z,652
2016-12-11T11:52:01.182Z,640
2016-12-11T11:53:01.215Z,544
2016-12-11T11:54:01.273Z,556
2016-12-11T11:55:01.319Z,568
2016-12-11T11:56:01.382Z,496
2016-12-11T11:57:01.424Z,496
2016-12-11T11:58:01.496Z,464
2016-12-11T11:59:01.551Z,484
2016-12-11T12:00:01.622Z,516
2016-12-11T12:01:01.672Z,408
2016-12-11T12:02:01.724Z,396
2016-12-11T12:03:01.797Z,508
2016-12-11T12:04:01.850Z,816
2016-12-11T12:05:01.897Z,828
2016-12-11T12:06:01.942Z,920
2016-12-11T12:07:01.997Z,940
2016-12-11T12:08:02.056Z,1020
2016-12-11T12:09:02.146Z,796
2016-12-11T12:10:02.149Z,584
2016-12-11T12:11:02.225Z,752
2016-12-11T12:12:02.274Z,816
2016-12-11T12:13:02.331Z,592
2016-12-11T12:14:02.398Z,556
2016-12-11T12:15:02.439Z,712
2016-12-11T12:16:02.504Z,1116
2016-12-11T12:17:02.565Z,868
2016-12-11T12:18:02.609Z,792
2016-12-11T12:19:02.655Z,992
2016-12-11T12:20:03.040Z,1012
2016-12-11T12:21:02.772Z,1032
2016-12-11T12:22:03.147Z,1204
2016-12-11T12:23:02.896Z,1168
2016-12-11T12:24:02.948Z,1116
2016-12-11T12:25:02.995Z,812
2016-12-11T12:26:03.055Z,780
2016-12-11T12:27:03.126Z,784
2016-12-11T12:28:03.179Z,668
2016-12-11T12:29:03.223Z,640
2016-12-11T12:30:03.295Z,580
2016-12-11T12:31:03.325Z,536
2016-12-11T12:32:03.391Z,516
2016-12-11T12:33:03.451Z,472
2016-12-11T12:34:03.507Z,544
2016-12-11T12:35:03.562Z,700
2016-12-11T12:36:03.624Z,668
2016-12-11T12:37:03.681Z,864
2016-12-11T12:38:03.726Z,768
2016-12-11T12:39:03.795Z,532
2016-12-11T12:40:03.838Z,472
2016-12-11T12:41:03.917Z,552
2016-12-11T12:42:03.944Z,500
2016-12-11T12:43:04.030Z,452
2016-12-11T12:44:04.047Z,420
2016-12-11T12:45:04.110Z,500
2016-12-11T12:46:04.232Z,500
2016-12-11T12:47:04.246Z,512
2016-12-11T12:48:04.290Z,540
2016-12-11T12:49:04.334Z,588
2016-12-11T12:50:04.385Z,532
2016-12-11T12:51:04.441Z,492
2016-12-11T12:52:04.507Z,456
2016-12-11T12:53:04.578Z,448
2016-12-11T12:54:04.615Z,404
2016-12-11T12:55:04.662Z,408
2016-12-11T12:56:04.733Z,524
2016-12-11T12:57:04.778Z,636
2016-12-11T12:58:04.850Z,512
2016-12-11T12:59:04.898Z,520
2016-12-11T13:00:04.958Z,492
2016-12-11T13:01:05.030Z,576
2016-12-11T13:02:05.078Z,588
2016-12-11T13:03:05.125Z,524
2016-12-11T13:04:05.185Z,532
2016-12-11T13:05:05.235Z,464
2016-12-11T13:06:05.291Z,500
2016-12-11T13:07:05.349Z,516
2016-12-11T13:08:05.415Z,472
2016-12-11T13:09:05.470Z,480
2016-12-11T13:10:05.538Z,392
2016-12-11T13:11:05.571Z,440
2016-12-11T13:12:05.613Z,472
2016-12-11T13:13:05.671Z,508
2016-12-11T13:14:05.729Z,540
2016-12-11T13:15:05.788Z,516
2016-12-11T13:16:05.877Z,528
2016-12-11T13:17:05.906Z,456
2016-12-11T13:18:05.971Z,496
2016-12-11T13:19:06.007Z,564
2016-12-11T13:20:06.096Z,664
2016-12-11T13:21:06.143Z,748
2016-12-11T13:22:06.180Z,732
2016-12-11T13:23:06.271Z,768
2016-12-11T13:24:06.307Z,680
2016-12-11T13:25:06.361Z,728
2016-12-11T13:26:06.425Z,516
2016-12-11T13:27:06.478Z,396
2016-12-11T13:28:06.544Z,332
2016-12-11T13:29:06.577Z,400
2016-12-11T13:30:06.932Z,432
2016-12-11T13:31:06.680Z,416
2016-12-11T13:32:06.753Z,484
2016-12-11T13:33:06.804Z,564
2016-12-11T13:34:06.882Z,568
2016-12-11T13:35:06.935Z,588
2016-12-11T13:36:06.969Z,492
2016-12-11T13:37:07.034Z,492
2016-12-11T13:38:07.080Z,468
2016-12-11T13:39:07.123Z,604
2016-12-11T13:40:07.187Z,648
2016-12-11T13:41:07.250Z,576
2016-12-11T13:42:07.291Z,416
2016-12-11T13:43:07.671Z,416
2016-12-11T13:44:07.419Z,384
2016-12-11T13:45:07.474Z,388
2016-12-11T13:46:07.548Z,336
2016-12-11T13:47:07.594Z,280
2016-12-11T13:48:07.649Z,248
2016-12-11T13:49:07.708Z,276
2016-12-11T13:50:07.747Z,228
2016-12-11T13:51:07.804Z,256
2016-12-11T13:52:07.872Z,264
2016-12-11T13:53:07.931Z,248
2016-12-11T13:54:07.976Z,240
2016-12-11T13:55:08.031Z,236
2016-12-11T13:56:08.085Z,276
2016-12-11T13:57:08.156Z,292
2016-12-11T13:58:08.199Z,228
2016-12-11T13:59:08.255Z,196
2016-12-11T14:00:08.317Z,188
2016-12-11T14:01:08.364Z,180
2016-12-11T14:02:08.417Z,232
2016-12-11T14:03:08.467Z,252
2016-12-11T14:04:08.530Z,232
2016-12-11T14:05:08.602Z,208
2016-12-11T14:06:08.648Z,248
2016-12-11T14:07:08.690Z,256
2016-12-11T14:08:08.739Z,280
2016-12-11T14:09:08.811Z,316
2016-12-11T14:10:08.881Z,220
2016-12-11T14:11:08.933Z,224